createdAt,value
2019-01-18T00:00:02.572Z,22.9
2019-01-18T00:00:52.556Z,22.9
2019-01-18T00:01:43.168Z,22.9
2019-01-18T00:02:32.096Z,22.9
2019-01-18T00:03:37.971Z,22.8
2019-01-18T00:04:13.628Z,22.9
2019-01-18T00:05:03.269Z,22.8
2019-01-18T00:05:53.181Z,22.8
2019-01-18T00:06:43.211Z,22.8
2019-01-18T00:07:33.518Z,22.8
2019-01-18T00:08:23.128Z,22.8
2019-01-18T00:09:12.286Z,22.8
2019-01-18T00:10:02.975Z,22.8
2019-01-18T00:10:53.481Z,22.8
2019-01-18T00:11:42.995Z,22.8
2019-01-18T00:12:34.148Z,22.8
2019-01-18T00:13:22.820Z,22.8
2019-01-18T00:14:13.727Z,22.7
2019-01-18T00:15:04.123Z,22.8
2019-01-18T00:15:54.962Z,22.7
2019-01-18T00:16:43.045Z,22.7
2019-01-18T00:17:33.382Z,22.7
2019-01-18T00:18:24.000Z,22.7
2019-01-18T00:19:13.497Z,22.7
2019-01-18T00:20:04.722Z,22.7
2019-01-18T00:20:53.624Z,22.6
2019-01-18T00:21:44.010Z,22.6
2019-01-18T00:22:34.824Z,22.6
2019-01-18T00:23:24.612Z,22.6
2019-01-18T00:24:15.214Z,22.6
2019-01-18T00:25:05.035Z,22.6
2019-01-18T00:25:54.287Z,22.6
2019-01-18T00:26:44.854Z,22.6
2019-01-18T00:27:35.204Z,22.6
2019-01-18T00:28:24.847Z,22.6
2019-01-18T00:29:13.999Z,22.5
2019-01-18T00:30:04.609Z,22.5
2019-01-18T00:30:54.952Z,22.5
2019-01-18T00:31:44.426Z,22.4
2019-01-18T00:32:34.807Z,22.5
2019-01-18T00:33:24.867Z,22.5
2019-01-18T00:34:15.157Z,22.4
2019-01-18T00:35:05.514Z,22.4
2019-01-18T00:35:54.776Z,22.4
2019-01-18T00:36:44.789Z,22.4
2019-01-18T00:37:34.837Z,22.4
2019-01-18T00:38:25.221Z,22.4
2019-01-18T00:39:15.836Z,22.4
2019-01-18T00:40:05.583Z,22.4
2019-01-18T00:40:55.301Z,22.4
2019-01-18T03:08:48.312Z,24.6
2019-01-18T03:09:37.064Z,24.4
2019-01-18T03:10:28.781Z,25.6
2019-01-18T03:11:18.216Z,29
2019-01-18T03:12:08.087Z,31.1
2019-01-18T03:12:58.886Z,32.3
2019-01-18T03:13:48.117Z,33
2019-01-18T03:14:38.954Z,32.9
2019-01-18T03:15:28.799Z,32.4
2019-01-18T03:16:17.753Z,31.3
2019-01-18T03:17:07.867Z,29.7
2019-01-18T03:17:58.444Z,28.3
2019-01-18T03:18:48.811Z,27.2
2019-01-18T03:19:39.641Z,26.4
2019-01-18T03:20:28.871Z,25.9
2019-01-18T03:21:19.422Z,25.5
2019-01-18T03:22:58.247Z,25
2019-01-18T03:23:49.615Z,24.9
2019-01-18T03:24:38.963Z,24.8
2019-01-18T03:25:29.455Z,24.7
2019-01-18T03:26:19.268Z,24.6
2019-01-18T03:27:09.865Z,24.4
2019-01-18T03:27:59.688Z,24.3
2019-01-18T03:28:49.789Z,24.3
2019-01-18T03:29:39.780Z,24.1
2019-01-18T03:30:31.474Z,24
2019-01-18T03:31:20.403Z,23.9
2019-01-18T03:32:10.155Z,23.9
2019-01-18T03:33:00.729Z,23.8
2019-01-18T03:33:49.061Z,26.1
2019-01-18T03:34:40.111Z,29.1
2019-01-18T03:35:30.193Z,31.3
2019-01-18T03:36:19.715Z,32.6
2019-01-18T03:37:09.560Z,33.3
2019-01-18T03:38:00.395Z,33.6
2019-01-18T03:38:50.421Z,33.3
2019-01-18T03:39:40.535Z,32.4
2019-01-18T03:40:30.543Z,31.2
2019-01-18T03:41:19.804Z,29.6
2019-01-18T03:42:09.870Z,28.3
2019-01-18T03:43:00.585Z,27.3
2019-01-18T03:43:50.401Z,26.4
2019-01-18T03:44:39.489Z,25.9
2019-01-18T03:45:30.339Z,25.6
2019-01-18T03:46:20.629Z,25.3
2019-01-18T03:47:10.479Z,25.1
2019-01-18T03:48:00.470Z,25
2019-01-18T03:48:50.227Z,24.9
2019-01-18T03:49:41.119Z,24.8
2019-01-18T03:50:31.174Z,24.6
2019-01-18T03:51:20.939Z,24.5
2019-01-18T03:52:11.555Z,24.4
2019-01-18T03:53:02.175Z,24.3
2019-01-18T03:53:51.046Z,24.2
2019-01-18T03:54:41.566Z,27.1
2019-01-18T03:55:31.799Z,29.9
2019-01-18T03:56:21.296Z,31.7
2019-01-18T03:57:11.617Z,32.6
2019-01-18T03:58:01.659Z,33.1
2019-01-18T03:58:51.999Z,32.9
2019-01-18T03:59:41.256Z,32.1
2019-01-18T04:00:36.257Z,30.8
2019-01-18T04:01:22.249Z,29.1
2019-01-18T04:02:10.849Z,27.9
2019-01-18T04:03:02.199Z,26.9
2019-01-18T04:03:51.967Z,26.2
2019-01-18T04:04:41.643Z,25.8
2019-01-18T04:05:32.191Z,25.4
2019-01-18T04:06:22.812Z,25.3
2019-01-18T04:07:12.853Z,25.1
2019-01-18T04:08:02.328Z,24.9
2019-01-18T04:08:53.341Z,24.8
2019-01-18T04:09:43.528Z,24.7
2019-01-18T04:10:32.525Z,24.6
2019-01-18T04:11:23.078Z,24.4
2019-01-18T04:12:12.956Z,24.4
2019-01-18T04:13:02.414Z,24.3
2019-01-18T04:13:51.965Z,24.2
2019-01-18T04:14:42.540Z,24.1
2019-01-18T04:15:31.313Z,24
2019-01-18T04:16:22.696Z,24.9
2019-01-18T04:17:12.771Z,28.6
2019-01-18T04:18:02.061Z,30.9
2019-01-18T04:18:53.176Z,32.4
2019-01-18T04:19:43.650Z,33.3
2019-01-18T04:20:33.166Z,33.7
2019-01-18T04:21:23.772Z,33.7
2019-01-18T04:22:14.112Z,33.1
2019-01-18T04:23:03.934Z,32.1
2019-01-18T04:23:53.504Z,30.6
2019-01-18T04:24:43.461Z,29.1
2019-01-18T04:25:33.367Z,27.9
2019-01-18T04:26:24.415Z,27
2019-01-18T04:27:14.147Z,26.3
2019-01-18T04:28:03.431Z,25.9
2019-01-18T04:28:53.810Z,25.6
2019-01-18T04:29:43.290Z,25.4
2019-01-18T04:30:42.248Z,25.1
2019-01-18T04:31:24.466Z,25
2019-01-18T04:32:14.256Z,24.9
2019-01-18T04:33:04.354Z,24.8
2019-01-18T04:33:54.672Z,24.6
2019-01-18T04:34:44.684Z,24.6
2019-01-18T04:35:35.104Z,25.6
2019-01-18T04:36:25.184Z,29
2019-01-18T04:37:14.850Z,31.2
2019-01-18T04:38:04.714Z,32.6
2019-01-18T04:38:55.024Z,33.3
2019-01-18T04:39:44.492Z,33.5
2019-01-18T04:40:34.936Z,33.3
2019-01-18T04:41:25.189Z,32.4
2019-01-18T04:42:14.924Z,31.2
2019-01-18T04:43:04.167Z,29.7
2019-01-18T04:43:55.703Z,28.4
2019-01-18T04:44:45.405Z,27.3
2019-01-18T04:45:35.131Z,26.6
2019-01-18T04:46:25.489Z,26.1
2019-01-18T04:47:14.998Z,25.7
2019-01-18T04:48:04.756Z,25.4
2019-01-18T04:48:54.811Z,25.3
2019-01-18T04:49:45.201Z,25.1
2019-01-18T04:50:35.748Z,25
2019-01-18T04:51:25.260Z,24.9
2019-01-18T04:52:15.071Z,24.8
2019-01-18T04:53:05.364Z,24.6
2019-01-18T04:53:54.868Z,24.6
2019-01-18T04:54:45.266Z,24.4
2019-01-18T04:55:50.473Z,24.3
2019-01-18T04:56:24.772Z,24.8
2019-01-18T04:57:31.142Z,27.6
2019-01-18T04:58:05.495Z,30.9
2019-01-18T04:58:56.030Z,32
2019-01-18T04:59:46.394Z,33.1
2019-01-18T05:00:44.366Z,33.6
2019-01-18T05:01:26.811Z,33.6
2019-01-18T05:02:16.580Z,33.1
2019-01-18T05:03:06.348Z,32.2
2019-01-18T05:03:57.264Z,30.8
2019-01-18T05:04:46.243Z,29.3
2019-01-18T05:05:35.717Z,28.1
2019-01-18T05:06:25.483Z,27.1
2019-01-18T05:07:16.619Z,26.5
2019-01-18T05:08:06.403Z,26
2019-01-18T05:08:56.772Z,25.7
2019-01-18T05:09:46.195Z,25.4
2019-01-18T05:10:36.833Z,25.2
2019-01-18T05:11:27.710Z,25.1
2019-01-18T05:12:16.725Z,24.9
2019-01-18T05:13:07.904Z,24.8
2019-01-18T05:13:57.174Z,24.7
2019-01-18T05:14:46.860Z,24.6
2019-01-18T05:15:36.424Z,24.5
2019-01-18T05:16:28.117Z,24.4
2019-01-18T05:17:17.618Z,24.3
2019-01-18T05:18:07.736Z,24.3
2019-01-18T05:18:56.887Z,24.1
2019-01-18T05:19:48.424Z,27.4
2019-01-18T05:20:37.556Z,30.2
2019-01-18T05:21:27.601Z,31.9
2019-01-18T05:22:17.922Z,32.9
2019-01-18T05:23:07.999Z,33.4
2019-01-18T05:23:57.171Z,33.5
2019-01-18T05:24:54.958Z,32.9
2019-01-18T05:25:37.039Z,31.8
2019-01-18T05:26:27.683Z,30.6
2019-01-18T05:27:17.696Z,29.1
2019-01-18T05:28:07.827Z,27.9
2019-01-18T05:28:57.546Z,26.9
2019-01-18T05:29:46.223Z,26.3
2019-01-18T05:30:38.556Z,25.9
2019-01-18T05:31:28.243Z,25.6
2019-01-18T05:32:17.275Z,25.3
2019-01-18T05:33:08.227Z,25.1
2019-01-18T05:33:57.928Z,25
2019-01-18T05:34:48.030Z,24.8
2019-01-18T05:35:38.943Z,24.8
2019-01-18T05:36:28.585Z,24.6
2019-01-18T05:37:17.588Z,24.5
2019-01-18T05:38:08.800Z,24.4
2019-01-18T05:38:58.595Z,24.4
2019-01-18T05:39:48.318Z,24.3
2019-01-18T05:40:37.575Z,26.2
2019-01-18T05:41:28.993Z,29.3
2019-01-18T05:42:19.248Z,31.4
2019-01-18T05:43:09.605Z,32.8
2019-01-18T05:43:58.888Z,33.4
2019-01-18T05:44:49.090Z,33.8
2019-01-18T05:45:39.534Z,33.5
2019-01-18T05:46:28.543Z,32.8
2019-01-18T05:47:18.817Z,31.6
2019-01-18T05:48:08.811Z,30.1
2019-01-18T05:48:59.707Z,28.7
2019-01-18T05:49:49.799Z,27.6
2019-01-18T05:50:37.990Z,26.8
2019-01-18T05:51:28.515Z,26.3
2019-01-18T05:52:19.985Z,25.9
2019-01-18T05:53:09.984Z,25.6
2019-01-18T05:54:00.551Z,25.4
2019-01-18T05:54:49.262Z,25.3
2019-01-18T05:55:40.764Z,25.1
2019-01-18T05:56:29.924Z,24.9
2019-01-18T05:57:19.722Z,24.8
2019-01-18T05:58:09.528Z,24.8
2019-01-18T05:58:59.791Z,24.6
2019-01-18T05:59:50.165Z,24.5
2019-01-18T06:00:40.234Z,24.4
2019-01-18T06:01:32.566Z,24.3
2019-01-18T06:02:20.590Z,24.9
2019-01-18T06:03:10.927Z,28.4
2019-01-18T06:04:00.471Z,30.8
2019-01-18T06:06:48.756Z,33.6
2019-01-18T06:07:38.006Z,33.1
2019-01-18T06:08:29.018Z,32.3
2019-01-18T06:09:19.231Z,30.8
2019-01-18T06:10:09.271Z,29.3
2019-01-18T06:10:59.291Z,28.1
2019-01-18T06:11:49.070Z,27.1
2019-01-18T06:12:39.475Z,26.4
2019-01-18T06:13:29.475Z,26
2019-01-18T06:14:18.687Z,25.7
2019-01-18T06:15:09.110Z,25.4
2019-01-18T06:15:59.443Z,25.3
2019-01-18T06:16:49.433Z,25.2
2019-01-18T06:17:40.070Z,25.1
2019-01-18T06:18:29.028Z,24.9
2019-01-18T06:19:19.023Z,24.8
2019-01-18T06:20:09.265Z,24.7
2019-01-18T06:20:59.930Z,24.6
2019-01-18T06:21:50.040Z,24.4
2019-01-18T06:22:40.375Z,24.4
2019-01-18T06:23:30.220Z,25.1
2019-01-18T06:24:19.454Z,28.7
2019-01-18T06:25:10.628Z,30.9
2019-01-18T06:26:00.407Z,32.4
2019-01-18T06:26:50.754Z,33.3
2019-01-18T06:27:40.310Z,33.6
2019-01-18T06:28:30.212Z,33.4
2019-01-18T06:29:20.233Z,32.8
2019-01-18T06:30:10.337Z,31.7
2019-01-18T06:31:07.557Z,30.1
2019-01-18T06:31:50.699Z,28.6
2019-01-18T06:32:40.445Z,27.6
2019-01-18T06:33:32.186Z,26.9
2019-01-18T06:34:20.989Z,26.3
2019-01-18T06:35:11.273Z,25.9
2019-01-18T06:36:00.739Z,25.6
2019-01-18T06:36:50.094Z,25.4
2019-01-18T06:37:40.637Z,25.3
2019-01-18T06:38:31.413Z,25.1
2019-01-18T06:39:21.471Z,24.9
2019-01-18T06:40:11.322Z,24.9
2019-01-18T06:41:01.297Z,24.8
2019-01-18T06:41:51.106Z,24.6
2019-01-18T06:42:40.874Z,24.6
2019-01-18T06:43:31.746Z,24.4
2019-01-18T06:44:21.824Z,24.3
2019-01-18T06:45:11.309Z,27.4
2019-01-18T06:46:01.641Z,30.1
2019-01-18T06:46:50.693Z,31.9
2019-01-18T06:47:41.806Z,32.9
2019-01-18T06:48:31.568Z,33.4
2019-01-18T06:49:21.863Z,33.4
2019-01-18T06:50:11.706Z,32.9
2019-01-18T06:51:02.236Z,31.9
2019-01-18T06:51:51.778Z,30.4
2019-01-18T06:52:42.145Z,28.9
2019-01-18T06:53:31.856Z,27.8
2019-01-18T06:54:22.198Z,26.9
2019-01-18T06:55:11.738Z,26.3
2019-01-18T06:56:02.090Z,25.9
2019-01-18T06:56:52.109Z,25.6
2019-01-18T06:57:42.503Z,25.4
2019-01-18T06:58:32.222Z,25.3
2019-01-18T06:59:22.629Z,25.1
2019-01-18T07:00:12.464Z,24.9
2019-01-18T07:01:08.986Z,24.9
2019-01-18T07:01:51.605Z,24.8
2019-01-18T07:02:42.510Z,24.6
2019-01-18T07:03:32.832Z,24.6
2019-01-18T07:04:22.960Z,24.4
2019-01-18T07:06:48.107Z,24.1
2019-01-18T07:07:37.547Z,24.1
2019-01-18T07:08:28.197Z,26.1
2019-01-18T07:09:18.800Z,29.3
2019-01-18T07:10:08.584Z,31.4
2019-01-18T07:10:58.389Z,32.7
2019-01-18T07:11:47.597Z,33.3
2019-01-18T07:12:38.465Z,33.6
2019-01-18T07:13:28.509Z,33.3
2019-01-18T07:14:18.362Z,32.6
2019-01-18T07:15:09.327Z,31.4
2019-01-18T07:15:59.492Z,29.9
2019-01-18T07:16:49.026Z,28.5
2019-01-18T07:17:38.286Z,27.4
2019-01-18T07:18:29.914Z,26.7
2019-01-18T07:19:19.186Z,26.1
2019-01-18T07:20:08.979Z,25.7
2019-01-18T07:20:59.539Z,25.4
2019-01-18T07:21:49.368Z,25.2
2019-01-18T07:22:38.844Z,25.1
2019-01-18T07:23:30.789Z,24.9
2019-01-18T07:24:20.406Z,24.8
2019-01-18T07:25:09.613Z,24.7
2019-01-18T07:25:58.918Z,24.6
2019-01-18T07:26:49.711Z,24.5
2019-01-18T07:27:39.102Z,24.4
2019-01-18T07:28:29.563Z,24.3
2019-01-18T07:29:20.461Z,28.3
2019-01-18T07:30:10.268Z,30.8
2019-01-18T07:30:59.411Z,32.3
2019-01-18T07:31:49.786Z,33.1
2019-01-18T07:32:39.275Z,33.6
2019-01-18T07:33:30.165Z,33.5
2019-01-18T07:34:20.490Z,32.9
2019-01-18T07:35:11.875Z,31.8
2019-01-18T07:36:00.868Z,30.3
2019-01-18T07:36:50.389Z,28.9
2019-01-18T07:37:40.513Z,27.8
2019-01-18T07:38:29.935Z,26.9
2019-01-18T07:39:26.898Z,26.3
2019-01-18T07:40:11.243Z,25.8
2019-01-18T07:41:00.662Z,25.6
2019-01-18T07:41:50.235Z,25.4
2019-01-18T07:42:41.403Z,25.2
2019-01-18T07:43:31.462Z,25.1
2019-01-18T07:44:21.278Z,24.9
2019-01-18T07:45:11.280Z,24.8
2019-01-18T07:46:00.507Z,24.8
2019-01-18T07:46:51.177Z,24.6
2019-01-18T07:47:41.167Z,24.5
2019-01-18T07:48:31.224Z,24.4
2019-01-18T07:49:21.597Z,24.4
2019-01-18T07:50:11.115Z,24.3
2019-01-18T07:51:00.802Z,28.1
2019-01-18T07:51:51.194Z,30.6
2019-01-18T07:52:41.752Z,32.2
2019-01-18T07:53:31.277Z,33.1
2019-01-18T07:54:21.588Z,33.5
2019-01-18T07:55:11.092Z,33.4
2019-01-18T07:56:01.465Z,32.8
2019-01-18T07:56:51.247Z,31.8
2019-01-18T07:57:42.121Z,30.3
2019-01-18T07:58:31.854Z,28.8
2019-01-18T07:59:21.940Z,27.7
2019-01-18T08:00:12.301Z,26.8
2019-01-18T08:01:04.027Z,26.3
2019-01-18T08:01:51.554Z,25.9
2019-01-18T08:02:42.454Z,25.6
2019-01-18T08:03:32.253Z,25.4
2019-01-18T08:04:21.776Z,25.2
2019-01-18T08:05:12.172Z,25.1
2019-01-18T08:06:02.017Z,25
2019-01-18T08:06:52.446Z,24.9
2019-01-18T08:07:41.421Z,24.8
2019-01-18T08:08:32.003Z,24.6
2019-01-18T08:09:22.948Z,24.5
2019-01-18T08:10:12.949Z,24.4
2019-01-18T08:11:03.311Z,24.4
2019-01-18T08:11:52.572Z,27.8
2019-01-18T08:12:42.342Z,30.4
2019-01-18T08:13:32.623Z,32.1
2019-01-18T08:14:23.013Z,33
2019-01-18T08:15:13.308Z,33.5
2019-01-18T08:16:03.370Z,33.4
2019-01-18T08:16:53.675Z,32.8
2019-01-18T08:17:43.802Z,31.8
2019-01-18T08:18:33.223Z,30.3
2019-01-18T08:19:23.318Z,28.8
2019-01-18T08:20:13.393Z,27.7
2019-01-18T08:21:04.015Z,26.9
2019-01-18T08:21:54.067Z,26.3
2019-01-18T08:22:43.566Z,25.9
2019-01-18T08:23:33.592Z,25.6
2019-01-18T08:24:23.909Z,25.4
2019-01-18T08:25:13.714Z,25.3
2019-01-18T08:26:03.467Z,25.1
2019-01-18T08:26:53.290Z,25
2019-01-18T08:27:43.903Z,24.9
2019-01-18T08:28:34.497Z,24.8
2019-01-18T08:29:24.005Z,24.7
2019-01-18T08:30:13.834Z,24.6
2019-01-18T08:31:04.659Z,24.5
2019-01-18T08:31:54.710Z,24.4
2019-01-18T08:32:44.261Z,24.8
2019-01-18T08:33:33.462Z,28.5
2019-01-18T08:34:23.572Z,30.9
2019-01-18T08:35:14.732Z,32.4
2019-01-18T08:36:04.517Z,33.3
2019-01-18T08:36:54.532Z,33.6
2019-01-18T08:37:45.126Z,33.4
2019-01-18T08:38:33.884Z,32.8
2019-01-18T08:39:24.688Z,31.7
2019-01-18T08:40:15.049Z,30.1
2019-01-18T08:41:05.422Z,28.7
2019-01-18T08:41:54.616Z,27.6
2019-01-18T08:42:44.919Z,26.9
2019-01-18T08:43:34.431Z,26.3
2019-01-18T08:44:24.744Z,25.9
2019-01-18T08:45:14.900Z,25.6
2019-01-18T08:46:03.832Z,25.4
2019-01-18T08:46:55.019Z,25.3
2019-01-18T08:47:45.313Z,25.1
2019-01-18T08:48:35.376Z,25
2019-01-18T08:49:24.943Z,24.9
2019-01-18T08:50:15.756Z,24.9
2019-01-18T08:51:06.828Z,24.8
2019-01-18T08:51:54.521Z,24.8
2019-01-18T08:52:46.133Z,28.4
2019-01-18T08:53:35.164Z,30.9
2019-01-18T08:54:26.275Z,32.4
2019-01-18T08:55:15.505Z,33.1
2019-01-18T08:56:05.842Z,33.4
2019-01-18T08:56:56.133Z,33
2019-01-18T08:57:45.708Z,32.1
2019-01-18T08:58:35.510Z,30.7
2019-01-18T08:59:25.522Z,29.2
2019-01-18T09:00:15.588Z,28
2019-01-18T09:01:05.638Z,27.1
2019-01-18T09:01:56.815Z,26.5
2019-01-18T09:02:45.990Z,26
2019-01-18T09:03:36.335Z,25.8
2019-01-18T09:04:25.827Z,25.5
2019-01-18T09:05:17.797Z,25.4
2019-01-18T09:06:06.562Z,25.3
2019-01-18T09:06:56.370Z,25.1
2019-01-18T09:07:46.329Z,25
2019-01-18T09:08:36.422Z,24.9
2019-01-18T09:09:26.505Z,24.8
2019-01-18T09:10:16.514Z,24.7
2019-01-18T09:11:06.308Z,24.6
2019-01-18T09:11:56.634Z,24.5
2019-01-18T09:12:47.507Z,24.4
2019-01-18T09:13:37.844Z,25.3
2019-01-18T09:14:29.610Z,28.9
2019-01-18T09:15:16.577Z,31.2
2019-01-18T09:16:06.613Z,32.6
2019-01-18T09:16:56.394Z,33.3
2019-01-18T09:17:47.034Z,33.7
2019-01-18T09:18:38.932Z,33.5
2019-01-18T09:19:27.132Z,32.8
2019-01-18T09:20:16.934Z,31.6
2019-01-18T09:21:07.817Z,30
2019-01-18T09:21:58.146Z,28.6
2019-01-18T09:22:47.649Z,27.4
2019-01-18T09:23:37.146Z,26.6
2019-01-18T09:24:27.839Z,26.1
2019-01-18T09:25:17.819Z,25.7
2019-01-18T09:26:07.894Z,25.3
2019-01-18T09:26:58.188Z,25.1
2019-01-18T09:27:47.726Z,24.9
2019-01-18T09:28:37.198Z,24.8
2019-01-18T09:29:28.436Z,24.6
2019-01-18T09:30:17.586Z,24.4
2019-01-18T09:31:08.766Z,24.4
2019-01-18T09:31:58.566Z,24.2
2019-01-18T09:32:48.322Z,26.4
2019-01-18T09:33:38.668Z,29.5
2019-01-18T09:34:29.020Z,31.5
2019-01-18T09:35:18.515Z,32.8
2019-01-18T09:36:08.543Z,33.3
2019-01-18T09:36:58.578Z,33.6
2019-01-18T09:37:48.988Z,33.2
2019-01-18T09:38:39.063Z,32.3
2019-01-18T09:39:28.785Z,30.9
2019-01-18T09:40:19.746Z,29.3
2019-01-18T09:41:08.062Z,28
2019-01-18T09:41:59.507Z,27.1
2019-01-18T09:42:48.799Z,26.3
2019-01-18T09:43:39.082Z,25.8
2019-01-18T09:44:29.438Z,25.6
2019-01-18T09:45:20.025Z,25.3
2019-01-18T09:46:08.965Z,25.1
2019-01-18T09:46:58.742Z,25
2019-01-18T09:47:49.642Z,24.8
2019-01-18T09:48:38.860Z,24.8
2019-01-18T09:49:29.755Z,24.6
2019-01-18T09:50:19.298Z,24.5
2019-01-18T09:51:10.103Z,24.4
2019-01-18T09:52:00.185Z,24.3
2019-01-18T09:52:49.698Z,24.1
2019-01-18T09:53:40.312Z,24.8
2019-01-18T09:54:29.553Z,28.6
2019-01-18T09:55:19.867Z,30.8
2019-01-18T09:56:09.657Z,32.3
2019-01-18T09:56:59.757Z,33.1
2019-01-18T09:57:49.912Z,33.4
2019-01-18T09:58:39.063Z,33.1
2019-01-18T09:59:29.442Z,32.4
2019-01-18T10:00:19.727Z,31.1
2019-01-18T10:01:11.519Z,29.5
2019-01-18T10:01:59.829Z,28.1
2019-01-18T10:02:49.912Z,27.1
2019-01-18T10:03:40.241Z,26.4
2019-01-18T10:04:30.011Z,25.9
2019-01-18T10:05:20.336Z,25.5
2019-01-18T10:07:48.273Z,24.9
2019-01-18T10:08:38.822Z,24.8
2019-01-18T10:09:28.917Z,24.7
2019-01-18T10:10:18.433Z,24.6
2019-01-18T10:11:07.940Z,24.5
2019-01-18T10:11:57.915Z,24.4
2019-01-18T10:12:48.308Z,24.3
2019-01-18T10:13:39.591Z,27.3
2019-01-18T10:14:28.655Z,30.1
2019-01-18T10:15:17.483Z,31.9
2019-01-18T10:16:08.920Z,32.8
2019-01-18T10:16:58.653Z,33.4
2019-01-18T10:17:49.165Z,33.4
2019-01-18T10:18:38.215Z,32.8
2019-01-18T10:19:29.267Z,31.8
2019-01-18T10:20:19.067Z,30.2
2019-01-18T10:21:09.203Z,28.8
2019-01-18T10:21:58.406Z,27.6
2019-01-18T10:22:48.204Z,26.8
2019-01-18T10:23:38.557Z,26.2
2019-01-18T10:24:30.587Z,25.8
2019-01-18T10:25:19.733Z,25.5
2019-01-18T10:26:09.502Z,25.3
2019-01-18T10:26:59.260Z,25.1
2019-01-18T10:27:49.314Z,24.9
2019-01-18T10:28:39.672Z,24.8
2019-01-18T10:29:36.142Z,24.7
2019-01-18T10:30:20.387Z,24.6
2019-01-18T10:31:09.874Z,24.5
2019-01-18T10:32:05.188Z,24.4
2019-01-18T10:32:49.969Z,24.3
2019-01-18T10:33:40.008Z,24.2
2019-01-18T10:34:30.922Z,24.1
2019-01-18T10:35:20.936Z,27.3
2019-01-18T10:36:09.336Z,30
2019-01-18T10:37:01.622Z,31.8
2019-01-18T10:37:50.656Z,32.8
2019-01-18T10:38:40.601Z,33.3
2019-01-18T10:39:31.185Z,33.3
2019-01-18T10:40:20.421Z,32.8
2019-01-18T10:41:11.055Z,31.7
2019-01-18T10:42:00.329Z,30.2
2019-01-18T10:42:50.921Z,28.7
2019-01-18T10:43:40.159Z,27.6
2019-01-18T10:44:31.099Z,26.8
2019-01-18T10:45:20.514Z,26.1
2019-01-18T10:46:10.576Z,25.8
2019-01-18T10:46:59.516Z,25.4
2019-01-18T10:47:50.423Z,25.3
2019-01-18T10:48:40.796Z,25.1
2019-01-18T10:49:31.648Z,24.9
2019-01-18T10:50:20.941Z,24.9
2019-01-18T10:51:11.523Z,24.8
2019-01-18T10:52:01.566Z,24.6
2019-01-18T10:52:50.808Z,24.5
2019-01-18T10:53:41.116Z,24.4
2019-01-18T10:54:31.715Z,24.3
2019-01-18T10:55:22.084Z,26.9
2019-01-18T10:56:11.598Z,29.8
2019-01-18T10:57:00.751Z,31.6
2019-01-18T10:57:51.993Z,32.8
2019-01-18T10:58:42.033Z,33.4
2019-01-18T10:59:32.333Z,33.4
2019-01-18T11:00:21.848Z,32.9
2019-01-18T11:01:12.210Z,31.9
2019-01-18T11:02:15.121Z,30.4
2019-01-18T11:02:51.657Z,28.6
2019-01-18T11:03:41.732Z,27.8
2019-01-18T11:04:31.777Z,26.9
2019-01-18T11:05:22.715Z,26.3
2019-01-18T11:06:12.518Z,25.9
2019-01-18T11:07:02.290Z,25.6
2019-01-18T11:07:51.752Z,25.4
2019-01-18T11:08:41.785Z,25.2
2019-01-18T11:09:32.402Z,25.1
2019-01-18T11:10:22.180Z,24.9
2019-01-18T11:11:11.765Z,24.8
2019-01-18T11:12:02.060Z,24.8
2019-01-18T11:12:52.868Z,24.6
2019-01-18T11:13:42.655Z,24.5
2019-01-18T11:14:33.020Z,24.4
2019-01-18T11:15:22.770Z,24.3
2019-01-18T11:16:12.604Z,26.6
2019-01-18T11:17:03.559Z,29.6
2019-01-18T11:17:53.532Z,31.6
2019-01-18T11:18:43.019Z,32.8
2019-01-18T11:19:32.815Z,33.4
2019-01-18T11:20:22.306Z,33.6
2019-01-18T11:21:13.732Z,33.1
2019-01-18T11:22:02.674Z,32.2
2019-01-18T11:22:53.309Z,30.8
2019-01-18T11:23:43.919Z,29.3
2019-01-18T11:24:33.748Z,28
2019-01-18T11:25:24.563Z,27.1
2019-01-18T11:26:13.588Z,26.4
2019-01-18T11:27:03.321Z,26
2019-01-18T11:27:53.636Z,25.7
2019-01-18T11:28:42.918Z,25.4
2019-01-18T11:29:33.786Z,25.3
2019-01-18T11:30:24.119Z,25.1
2019-01-18T11:31:14.181Z,25
2019-01-18T11:32:04.455Z,24.9
2019-01-18T11:32:53.699Z,24.8
2019-01-18T11:33:44.053Z,24.7
2019-01-18T11:34:32.976Z,26
2019-01-18T11:35:24.776Z,29.3
2019-01-18T11:36:13.911Z,31.4
2019-01-18T11:37:07.588Z,32.8
2019-01-18T11:37:53.776Z,33.5
2019-01-18T11:38:44.385Z,33.8
2019-01-18T11:39:34.203Z,33.5
2019-01-18T11:40:23.948Z,32.8
2019-01-18T11:41:14.598Z,31.5
2019-01-18T11:42:08.280Z,29.9
2019-01-18T11:42:54.797Z,28.5
2019-01-18T11:43:44.465Z,27.6
2019-01-18T11:44:34.838Z,26.9
2019-01-18T11:45:24.622Z,26.4
2019-01-18T11:46:13.793Z,26
2019-01-18T11:47:05.232Z,25.7
2019-01-18T11:47:55.055Z,25.5
2019-01-18T11:48:45.657Z,25.4
2019-01-18T11:49:35.174Z,25.3
2019-01-18T11:50:25.265Z,25.1
2019-01-18T11:51:15.262Z,25
2019-01-18T11:52:04.830Z,24.9
2019-01-18T11:52:54.529Z,24.8
2019-01-18T11:53:46.880Z,24.7
2019-01-18T11:54:35.771Z,24.6
2019-01-18T11:55:26.095Z,27
2019-01-18T11:56:16.210Z,29.9
2019-01-18T11:57:04.592Z,31.8
2019-01-18T11:57:55.496Z,32.8
2019-01-18T11:58:46.039Z,33.3
2019-01-18T11:59:36.372Z,33.3
2019-01-18T12:00:26.176Z,32.6
2019-01-18T12:01:15.947Z,31.4
2019-01-18T12:02:05.744Z,29.9
2019-01-18T12:02:56.174Z,28.5
2019-01-18T12:03:46.666Z,27.5
2019-01-18T12:04:36.219Z,26.8
2019-01-18T12:05:26.591Z,26.3
2019-01-18T12:07:47.542Z,25.4
2019-01-18T12:08:43.387Z,25.3
2019-01-18T12:09:28.476Z,25.2
2019-01-18T12:10:18.599Z,25.1
2019-01-18T12:11:09.189Z,24.9
2019-01-18T12:11:58.674Z,24.9
2019-01-18T12:12:48.149Z,24.7
2019-01-18T12:13:37.679Z,24.6
2019-01-18T12:14:29.175Z,24.6
2019-01-18T12:15:18.633Z,28.3
2019-01-18T12:16:07.858Z,30.7
2019-01-18T12:16:58.503Z,32.3
2019-01-18T12:17:48.530Z,33.1
2019-01-18T12:18:38.838Z,33.6
2019-01-18T12:19:28.623Z,33.4
2019-01-18T12:20:18.448Z,32.7
2019-01-18T12:21:08.193Z,31.5
2019-01-18T12:21:58.800Z,29.9
2019-01-18T12:22:49.702Z,28.6
2019-01-18T12:23:38.320Z,27.6
2019-01-18T12:24:28.985Z,26.8
2019-01-18T12:25:19.282Z,26.3
2019-01-18T12:26:09.115Z,25.9
2019-01-18T12:26:59.393Z,25.7
2019-01-18T12:27:48.651Z,25.5
2019-01-18T12:28:39.217Z,25.3
2019-01-18T12:29:30.878Z,25.2
2019-01-18T12:30:19.153Z,25.1
2019-01-18T12:31:10.511Z,24.9
2019-01-18T12:31:59.320Z,24.9
2019-01-18T12:32:49.585Z,24.8
2019-01-18T12:33:39.101Z,24.6
2019-01-18T12:34:29.786Z,24.6
2019-01-18T12:35:18.693Z,27.4
2019-01-18T12:36:09.010Z,30.1
2019-01-18T12:37:06.950Z,31.9
2019-01-18T12:37:49.418Z,33.2
2019-01-18T12:38:40.008Z,33.6
2019-01-18T12:39:30.820Z,33.8
2019-01-18T12:40:20.353Z,33.2
2019-01-18T12:41:09.565Z,32.3
2019-01-18T12:42:00.148Z,30.8
2019-01-18T12:42:49.932Z,29.3
2019-01-18T12:43:40.385Z,28.1
2019-01-18T12:44:31.170Z,27.3
2019-01-18T12:45:19.556Z,26.6
2019-01-18T12:46:09.880Z,26.2
2019-01-18T12:47:00.786Z,25.9
2019-01-18T12:47:51.137Z,25.7
2019-01-18T12:48:40.605Z,25.5
2019-01-18T12:49:30.980Z,25.4
2019-01-18T12:50:21.877Z,25.3
2019-01-18T12:51:12.566Z,25.1
2019-01-18T12:52:01.377Z,25
2019-01-18T12:52:50.615Z,24.9
2019-01-18T12:53:41.527Z,24.8
2019-01-18T12:54:31.882Z,25.6
2019-01-18T12:55:21.941Z,29.1
2019-01-18T12:56:11.672Z,31.3
2019-01-18T12:57:01.719Z,32.6
2019-01-18T12:57:52.232Z,33.3
2019-01-18T12:58:41.033Z,33.5
2019-01-18T12:59:31.971Z,33.1
2019-01-18T13:00:21.534Z,32.3
2019-01-18T13:01:12.019Z,30.8
2019-01-18T13:02:02.139Z,29.3
2019-01-18T13:02:52.137Z,28.1
2019-01-18T13:03:42.186Z,27.2
2019-01-18T13:04:31.759Z,26.6
2019-01-18T13:05:21.346Z,26.2
2019-01-18T13:06:11.798Z,25.9
2019-01-18T13:07:01.938Z,25.6
2019-01-18T13:07:51.424Z,25.5
2019-01-18T13:08:43.039Z,25.3
2019-01-18T13:09:32.854Z,25.3
2019-01-18T13:10:22.203Z,25.1
2019-01-18T13:11:11.929Z,25
2019-01-18T13:12:03.374Z,24.9
2019-01-18T13:12:52.645Z,24.8
2019-01-18T13:13:41.239Z,26.8
2019-01-18T13:14:32.143Z,29.8
2019-01-18T13:15:22.743Z,31.8
2019-01-18T13:16:12.583Z,33.1
2019-01-18T13:17:03.763Z,33.6
2019-01-18T13:17:52.889Z,33.9
2019-01-18T13:18:43.243Z,33.5
2019-01-18T13:19:33.336Z,32.7
2019-01-18T13:20:22.808Z,31.4
2019-01-18T13:21:12.603Z,29.9
2019-01-18T13:22:02.347Z,28.6
2019-01-18T13:22:53.023Z,27.7
2019-01-18T13:23:43.019Z,26.9
2019-01-18T13:24:33.143Z,26.4
2019-01-18T13:25:22.920Z,26.1
2019-01-18T13:26:13.840Z,25.8
2019-01-18T13:27:03.043Z,25.7
2019-01-18T13:27:53.288Z,25.6
2019-01-18T13:28:43.650Z,25.4
2019-01-18T13:29:33.725Z,25.3
2019-01-18T13:30:24.655Z,25.2
2019-01-18T13:31:13.793Z,25.1
2019-01-18T13:32:04.443Z,25
2019-01-18T13:32:54.232Z,26.8
2019-01-18T13:33:43.437Z,29.8
2019-01-18T13:34:33.814Z,31.7
2019-01-18T13:35:23.734Z,32.8
2019-01-18T13:36:13.617Z,33.4
2019-01-18T13:37:04.325Z,33.4
2019-01-18T13:37:54.832Z,32.7
2019-01-18T13:38:43.512Z,31.5
2019-01-18T13:39:34.479Z,29.9
2019-01-18T13:40:24.029Z,28.6
2019-01-18T13:41:14.036Z,27.6
2019-01-18T13:42:06.250Z,26.8